Time;durP1;ratioP1;P1;durP2;ratioP2;P2;SDS_P1;SDS_P2;PMS_P1;PMS_P2;Temp;Humidity;BMP_temperature;BMP_pressure;BME280_temperature;BME280_humidity;BME280_pressure;Samples;Min_cycle;Max_cycle;Signal;HPM_P1;HPM_P2
2022/04/28 00:00:29;;;;;;;16.73;6.38;;;7.50;99.90;;;;;;6235313;23;20004;-86
2022/04/28 00:02:55;;;;;;;6.50;5.28;;;7.50;99.90;;;;;;6237475;23;20036;-86
2022/04/28 00:05:21;;;;;;;8.27;5.25;;;7.40;99.90;;;;;;6235958;23;20008;-87
2022/04/28 00:07:47;;;;;;;8.02;5.60;;;7.40;99.90;;;;;;6234134;23;19988;-87
2022/04/28 00:10:16;;;;;;;8.68;6.18;;;7.50;99.90;;;;;;6236298;23;19999;-85
2022/04/28 00:12:42;;;;;;;8.18;5.35;;;7.50;99.90;;;;;;6236209;23;20008;-86
2022/04/28 00:15:10;;;;;;;10.00;5.60;;;7.40;99.90;;;;;;6238373;23;20011;-86
2022/04/28 00:17:36;;;;;;;7.05;5.43;;;7.40;99.90;;;;;;6236785;23;20001;-86
2022/04/28 00:20:02;;;;;;;7.82;6.03;;;7.50;99.90;;;;;;6237440;23;20012;-84
2022/04/28 00:22:29;;;;;;;7.80;5.97;;;7.40;99.90;;;;;;6236974;23;19996;-86
2022/04/28 00:24:55;;;;;;;7.75;5.88;;;7.40;99.90;;;;;;6237657;23;20021;-87
2022/04/28 00:27:21;;;;;;;9.10;5.65;;;7.30;99.90;;;;;;6237794;23;20016;-87
2022/04/28 00:29:47;;;;;;;8.05;6.13;;;7.30;99.90;;;;;;6237019;23;20004;-85
2022/04/28 00:32:12;;;;;;;6.57;5.43;;;7.30;99.90;;;;;;6235685;23;20036;-85
2022/04/28 00:34:38;;;;;;;8.90;5.90;;;7.30;99.90;;;;;;6237430;23;20007;-85
2022/04/28 00:37:09;;;;;;;7.85;5.85;;;7.30;99.90;;;;;;6236947;23;20004;-86
2022/04/28 00:39:36;;;;;;;6.18;5.10;;;7.30;99.90;;;;;;6237118;23;20076;-86
2022/04/28 00:42:08;;;;;;;6.55;5.32;;;7.30;99.90;;;;;;6237314;23;19996;-86
2022/04/28 00:44:34;;;;;;;6.20;5.57;;;7.20;99.90;;;;;;6234179;23;20020;-84
2022/04/28 00:47:00;;;;;;;7.50;5.72;;;7.20;99.90;;;;;;6233841;23;19997;-86
2022/04/28 00:52:10;;;;;;;9.25;5.72;;;7.10;99.90;;;;;;6232187;23;20018;-86
2022/04/28 00:54:35;;;;;;;13.20;5.78;;;7.10;99.90;;;;;;6232770;23;20004;-86
2022/04/28 00:57:05;;;;;;;7.43;5.97;;;7.10;99.90;;;;;;6231987;23;20020;-85
2022/04/28 01:00:09;;;;;;;6.35;5.22;;;7.10;99.90;;;;;;6216025;23;20024;-86
2022/04/28 01:02:43;;;;;;;8.13;5.22;;;7.00;99.90;;;;;;6214693;23;20004;-85
2022/04/28 01:05:17;;;;;;;7.05;5.80;;;7.00;99.90;;;;;;6215764;23;20330;-85
2022/04/28 01:07:46;;;;;;;10.63;5.88;;;7.00;99.90;;;;;;6213934;23;20084;-85
2022/04/28 01:10:31;;;;;;;6.80;5.43;;;6.90;99.90;;;;;;6213529;23;20005;-85
2022/04/28 01:13:03;;;;;;;9.55;6.10;;;7.00;99.90;;;;;;6215314;23;20079;-85
2022/04/28 01:15:51;;;;;;;8.18;5.82;;;6.90;99.90;;;;;;6215389;23;20024;-85
2022/04/28 01:18:42;;;;;;;11.02;5.72;;;6.90;99.90;;;;;;6213133;23;20004;-84
2022/04/28 01:21:14;;;;;;;7.90;5.82;;;6.80;99.90;;;;;;6214845;23;20008;-85
2022/04/28 01:23:56;;;;;;;7.50;6.25;;;6.70;99.90;;;;;;6213154;23;20029;-85
2022/04/28 01:26:35;;;;;;;9.25;6.72;;;6.70;99.90;;;;;;6214881;23;20000;-86
2022/04/28 01:29:27;;;;;;;8.75;5.72;;;;;;;;;;6213119;23;20000;-85
2022/04/28 01:32:21;;;;;;;8.05;6.05;;;6.60;99.90;;;;;;6213961;23;20021;-86
2022/04/28 01:35:12;;;;;;;9.07;6.28;;;6.60;99.90;;;;;;6213536;23;20008;-85
2022/04/28 01:38:14;;;;;;;6.93;5.40;;;6.60;99.90;;;;;;6211903;23;20001;-85
2022/04/28 01:41:14;;;;;;;8.07;5.75;;;6.60;99.90;;;;;;6209704;23;20000;-86
2022/04/28 01:44:10;;;;;;;6.90;5.68;;;6.50;99.90;;;;;;6214303;23;20005;-86
2022/04/28 01:46:50;;;;;;;9.45;6.07;;;6.50;99.90;;;;;;6212527;23;20024;-85
2022/04/28 01:49:52;;;;;;;6.93;5.72;;;6.50;99.90;;;;;;6212599;23;20434;-85
2022/04/28 01:55:11;;;;;;;9.63;6.22;;;6.40;99.90;;;;;;6214792;23;20080;-84
2022/04/28 02:00:37;;;;;;;;;;;6.40;99.90;;;;;;6210746;23;20013;-86
2022/04/28 02:03:36;;;;;;;8.95;5.93;;;6.40;99.90;;;;;;6216360;23;19903;-85
2022/04/28 02:06:11;;;;;;;8.55;6.43;;;6.40;99.90;;;;;;6214291;23;20000;-84
2022/04/28 02:09:04;;;;;;;10.02;6.22;;;6.50;99.90;;;;;;6215875;23;20004;-85
2022/04/28 02:11:43;;;;;;;8.93;6.28;;;6.40;99.90;;;;;;6214636;23;20035;-86
2022/04/28 02:14:30;;;;;;;8.15;6.20;;;6.40;99.90;;;;;;6215774;23;20004;-85
2022/04/28 02:17:09;;;;;;;7.82;6.20;;;6.40;99.90;;;;;;6214525;23;20431;-85
2022/04/28 02:19:53;;;;;;;9.85;6.15;;;6.30;99.90;;;;;;6217338;23;20028;-85
2022/04/28 02:22:38;;;;;;;8.73;5.95;;;6.30;99.90;;;;;;6214770;23;20382;-85
2022/04/28 02:25:20;;;;;;;9.38;6.22;;;6.30;99.90;;;;;;6222123;23;20000;-84
2022/04/28 02:27:49;;;;;;;9.93;7.03;;;6.30;99.90;;;;;;6213465;23;20039;-85
2022/04/28 02:30:22;;;;;;;9.55;6.82;;;6.30;99.90;;;;;;6214226;23;20431;-84
2022/04/28 02:33:19;;;;;;;11.88;7.10;;;6.30;99.90;;;;;;6214916;23;20016;-86
2022/04/28 02:35:50;;;;;;;9.45;6.32;;;6.20;99.90;;;;;;6213650;23;20442;-85
2022/04/28 02:38:41;;;;;;;9.43;6.60;;;6.20;99.90;;;;;;6214216;23;20005;-86
2022/04/28 02:41:24;;;;;;;8.27;6.65;;;6.20;99.90;;;;;;6216191;23;20020;-85
2022/04/28 02:44:10;;;;;;;7.50;6.22;;;6.20;99.90;;;;;;6216426;23;20008;-85
2022/04/28 02:47:14;;;;;;;7.97;6.25;;;6.10;99.90;;;;;;6216406;23;20071;-86
2022/04/28 02:49:52;;;;;;;8.43;5.88;;;6.10;99.90;;;;;;6217453;23;20373;-85
2022/04/28 02:52:26;;;;;;;7.78;6.10;;;6.10;99.90;;;;;;6214243;23;20009;-85
2022/04/28 02:54:57;;;;;;;7.97;6.18;;;6.00;99.90;;;;;;6214945;23;20406;-84
2022/04/28 03:00:19;;;;;;;9.77;6.57;;;6.00;99.90;;;;;;6204604;23;20095;-85
2022/04/28 03:02:48;;;;;;;8.93;6.72;;;6.00;99.90;;;;;;6215825;23;20534;-85
2022/04/28 03:05:19;;;;;;;8.98;6.43;;;5.90;99.90;;;;;;6213148;23;20059;-85
2022/04/28 03:11:02;;;;;;;11.32;6.30;;;5.90;99.90;;;;;;6215414;23;20015;-85
2022/04/28 03:13:57;;;;;;;10.20;6.72;;;5.90;99.90;;;;;;6215831;23;20075;-84
2022/04/28 03:16:33;;;;;;;13.52;6.80;;;5.80;99.90;;;;;;6213711;23;20012;-85
2022/04/28 03:19:20;;;;;;;8.43;6.65;;;5.80;99.90;;;;;;6213997;23;20063;-85
2022/04/28 03:22:00;;;;;;;9.27;6.53;;;5.80;99.90;;;;;;6215246;23;20000;-84
2022/04/28 03:24:43;;;;;;;10.45;7.13;;;5.80;99.90;;;;;;6215314;23;20434;-86
2022/04/28 03:27:27;;;;;;;11.82;6.53;;;5.80;99.90;;;;;;6213693;23;20063;-86
2022/04/28 03:30:02;;;;;;;9.73;7.25;;;5.70;99.90;;;;;;6215020;23;20308;-86
2022/04/28 03:32:32;;;;;;;10.02;6.70;;;5.70;99.90;;;;;;6215646;23;20004;-85
2022/04/28 03:35:14;;;;;;;7.93;6.50;;;5.70;99.90;;;;;;6215920;23;20088;-84
2022/04/28 03:37:44;;;;;;;10.02;6.93;;;5.70;99.90;;;;;;6212564;23;20390;-85
2022/04/28 03:40:18;;;;;;;10.52;7.25;;;5.70;99.90;;;;;;6214879;23;20000;-84
2022/04/28 03:43:26;;;;;;;9.00;7.00;;;5.60;99.90;;;;;;6215012;23;20004;-85
2022/04/28 03:45:56;;;;;;;10.13;7.05;;;5.60;99.90;;;;;;6215192;23;19997;-85
2022/04/28 03:48:30;;;;;;;10.57;6.40;;;5.60;99.90;;;;;;6214472;23;20007;-86
2022/04/28 03:51:10;;;;;;;11.57;6.60;;;5.50;99.90;;;;;;6213685;23;20474;-86
2022/04/28 03:53:50;;;;;;;9.90;6.53;;;5.50;99.90;;;;;;6210034;23;20004;-86
2022/04/28 03:56:39;;;;;;;9.65;6.55;;;5.50;99.90;;;;;;6212689;23;20026;-86
2022/04/28 03:59:13;;;;;;;13.25;7.45;;;5.60;99.90;;;;;;6210856;23;20008;-86
2022/04/28 04:01:39;;;;;;;12.23;7.05;;;5.50;99.90;;;;;;6214744;23;20009;-86
2022/04/28 04:04:07;;;;;;;9.02;6.90;;;5.50;99.90;;;;;;6212555;23;20047;-85
2022/04/28 04:06:40;;;;;;;9.32;6.55;;;5.50;99.90;;;;;;6214512;23;20032;-85
2022/04/28 04:09:18;;;;;;;9.70;6.72;;;5.50;99.90;;;;;;6212048;23;20096;-86
2022/04/28 04:11:46;;;;;;;9.15;6.55;;;5.50;99.90;;;;;;6214346;23;20005;-86
2022/04/28 04:14:15;;;;;;;8.48;6.85;;;5.50;99.90;;;;;;6211605;23;20482;-86
2022/04/28 04:16:41;;;;;;;9.30;6.78;;;5.50;99.90;;;;;;6214588;23;19996;-86
2022/04/28 04:19:23;;;;;;;8.82;6.85;;;5.50;99.90;;;;;;6213932;23;20001;-86
2022/04/28 04:21:49;;;;;;;9.13;7.10;;;5.50;99.90;;;;;;6212983;23;20347;-86
2022/04/28 04:24:23;;;;;;;9.90;7.18;;;5.50;99.90;;;;;;6212857;23;20001;-86
2022/04/28 04:26:49;;;;;;;10.18;7.22;;;5.40;99.90;;;;;;6214772;23;20075;-86
2022/04/28 04:29:26;;;;;;;9.07;6.40;;;5.40;99.90;;;;;;6212465;23;20031;-87
2022/04/28 04:34:38;;;;;;;8.80;6.43;;;5.50;99.90;;;;;;6214399;23;20067;-85
2022/04/28 04:37:10;;;;;;;12.80;7.80;;;5.50;99.90;;;;;;6214216;23;20027;-86
2022/04/28 04:39:36;;;;;;;10.20;6.97;;;5.40;99.90;;;;;;6212678;23;20472;-88
2022/04/28 04:42:11;;;;;;;10.00;7.05;;;5.40;99.90;;;;;;6214379;23;20083;-88
2022/04/28 04:44:42;;;;;;;9.38;6.88;;;5.40;99.90;;;;;;6211050;23;20039;-87
2022/04/28 04:47:18;;;;;;;10.70;7.07;;;5.40;99.90;;;;;;6212680;23;20092;-87
2022/04/28 04:49:51;;;;;;;8.68;6.90;;;5.40;99.90;;;;;;6214006;23;20724;-88
2022/04/28 04:52:22;;;;;;;10.43;7.30;;;5.50;99.90;;;;;;6213242;23;20004;-88
2022/04/28 04:54:51;;;;;;;;;;;5.50;99.90;;;;;;6213292;23;20008;-87
2022/04/28 04:57:26;;;;;;;10.55;6.35;;;5.50;99.90;;;;;;6213767;23;19903;-86
2022/04/28 04:59:54;;;;;;;9.50;7.25;;;5.50;99.90;;;;;;6212510;23;20058;-87
2022/04/28 05:02:20;;;;;;;12.07;7.30;;;5.50;99.90;;;;;;6213749;23;20028;-86
2022/04/28 05:04:46;;;;;;;9.80;7.45;;;5.60;99.90;;;;;;6212571;23;20111;-86
2022/04/28 05:07:12;;;;;;;9.27;6.97;;;5.60;99.90;;;;;;6212731;23;20040;-87
2022/04/28 05:09:38;;;;;;;13.23;7.22;;;5.60;99.90;;;;;;6214084;23;20004;-86
2022/04/28 05:12:05;;;;;;;9.45;6.72;;;5.60;99.90;;;;;;6214366;23;20359;-86
2022/04/28 05:14:31;;;;;;;8.73;7.10;;;5.70;99.90;;;;;;6212913;23;20032;-86
2022/04/28 05:16:58;;;;;;;11.32;6.97;;;5.80;99.90;;;;;;6213236;23;20009;-87
2022/04/28 05:19:26;;;;;;;9.32;6.97;;;5.90;99.90;;;;;;6212436;23;20078;-86
2022/04/28 05:21:53;;;;;;;10.48;6.93;;;5.90;99.90;;;;;;6212378;23;20434;-87
2022/04/28 05:24:18;;;;;;;11.82;7.57;;;6.00;99.90;;;;;;6212912;23;20005;-87
2022/04/28 05:26:44;;;;;;;11.25;6.80;;;6.10;99.90;;;;;;6212724;23;20082;-88
2022/04/28 05:29:10;;;;;;;9.50;7.32;;;6.10;99.90;;;;;;6215049;23;20017;-87
2022/04/28 05:31:36;;;;;;;12.07;7.35;;;6.20;99.90;;;;;;6212899;23;20011;-87
2022/04/28 05:34:02;;;;;;;11.32;7.05;;;6.30;99.90;;;;;;6213552;23;20004;-87
2022/04/28 05:36:28;;;;;;;10.93;7.20;;;6.30;99.90;;;;;;6215863;23;20378;-88
2022/04/28 05:38:57;;;;;;;9.30;6.50;;;6.40;99.90;;;;;;6215168;23;20005;-87
2022/04/28 05:41:23;;;;;;;9.02;7.00;;;6.40;99.90;;;;;;6218645;23;20067;-86
2022/04/28 05:46:34;;;;;;;9.70;7.53;;;6.50;99.90;;;;;;6222346;23;20008;-86
2022/04/28 05:49:00;;;;;;;9.77;7.22;;;6.60;99.90;;;;;;6219846;23;20001;-86
2022/04/28 05:51:26;;;;;;;12.15;6.70;;;6.70;99.90;;;;;;6216494;23;20096;-84
2022/04/28 05:53:51;;;;;;;10.60;6.82;;;6.80;99.90;;;;;;6220022;23;19996;-86
2022/04/28 05:56:17;;;;;;;10.10;7.47;;;6.80;99.90;;;;;;6218735;23;20005;-86
2022/04/28 05:58:43;;;;;;;9.02;7.25;;;6.90;99.90;;;;;;6214994;23;20063;-86
2022/04/28 06:01:08;;;;;;;8.52;6.70;;;7.00;99.90;;;;;;6214091;23;20080;-86
2022/04/28 06:03:34;;;;;;;13.55;7.80;;;7.10;99.90;;;;;;6213071;23;20008;-87
2022/04/28 06:06:00;;;;;;;11.40;7.18;;;7.20;99.90;;;;;;6211834;23;20320;-86
2022/04/28 06:08:25;;;;;;;12.30;7.38;;;7.20;99.90;;;;;;6212431;23;20004;-86
2022/04/28 06:10:51;;;;;;;10.18;7.18;;;7.40;99.90;;;;;;6212470;23;20471;-87
2022/04/28 06:13:16;;;;;;;10.75;7.72;;;7.50;99.90;;;;;;6213550;23;20008;-86
2022/04/28 06:15:42;;;;;;;11.80;6.93;;;7.60;99.90;;;;;;6213056;23;20315;-87
2022/04/28 06:18:08;;;;;;;9.75;6.88;;;7.80;99.90;;;;;;6213861;23;20012;-86
2022/04/28 06:20:33;;;;;;;10.52;7.25;;;7.90;99.90;;;;;;6214276;23;20032;-88
2022/04/28 06:23:07;;;;;;;10.93;7.25;;;8.10;99.90;;;;;;6216025;23;20427;-90
2022/04/28 06:25:47;;;;;;;9.52;6.60;;;8.20;99.90;;;;;;6217228;23;20012;-91
2022/04/28 06:35:07;;;;;;;8.10;6.05;;;8.70;99.90;;;;;;6158702;23;20020;-88
2022/04/28 06:37:33;;;;;;;6.43;5.43;;;8.90;99.90;;;;;;6216570;23;20004;-90
2022/04/28 06:44:16;;;;;;;8.32;5.72;;;9.20;99.90;;;;;;6215771;23;20007;-89
2022/04/28 06:47:14;;;;;;;;;;;;;;;;;;;;;
2022/04/28 06:56:01;;;;;;;8.02;5.10;;;10.10;99.90;;;;;;6213211;23;20004;-88
2022/04/28 07:01:27;;;;;;;10.48;5.13;;;10.40;99.90;;;;;;6232417;23;20020;-89
2022/04/28 07:03:53;;;;;;;12.43;4.78;;;10.50;99.90;;;;;;6242896;23;20000;-89
2022/04/28 07:06:19;;;;;;;7.82;5.13;;;10.60;99.90;;;;;;6241599;23;20024;-90
2022/04/28 07:08:44;;;;;;;5.90;4.65;;;10.80;99.90;;;;;;6242258;23;20019;-89
2022/04/28 07:11:10;;;;;;;8.38;5.05;;;10.90;99.90;;;;;;6241590;23;20007;-87
2022/04/28 07:13:38;;;;;;;6.70;4.63;;;11.00;99.90;;;;;;6242542;23;20004;-87
2022/04/28 07:16:06;;;;;;;8.45;4.72;;;11.10;99.90;;;;;;6243003;23;20011;-89
2022/04/28 07:18:32;;;;;;;6.93;4.68;;;11.20;97.40;;;;;;6242792;23;20053;-87
2022/04/28 07:21:02;;;;;;;7.20;4.55;;;11.30;95.20;;;;;;6242745;23;20004;-87
2022/04/28 07:23:28;;;;;;;6.25;4.15;;;11.50;95.10;;;;;;6241910;23;20013;-89
2022/04/28 07:25:54;;;;;;;7.60;4.32;;;11.60;93.10;;;;;;6241816;23;20007;-89
2022/04/28 07:28:19;;;;;;;6.38;4.63;;;11.60;93.00;;;;;;6242781;23;19999;-89
2022/04/28 07:30:45;;;;;;;7.63;4.63;;;11.80;90.80;;;;;;6241588;23;20004;-89
2022/04/28 07:33:11;;;;;;;6.93;4.80;;;11.80;90.90;;;;;;6241998;23;20020;-89
2022/04/28 07:35:38;;;;;;;5.60;4.18;;;12.00;90.30;;;;;;6242185;23;19997;-89
2022/04/28 07:38:04;;;;;;;4.80;3.83;;;12.00;89.10;;;;;;6242851;23;20008;-89
2022/04/28 07:40:32;;;;;;;5.78;3.83;;;12.10;88.80;;;;;;6242289;23;20073;-88
2022/04/28 07:42:58;;;;;;;4.95;3.75;;;12.30;87.70;;;;;;6242832;23;19997;-89
2022/04/28 07:45:26;;;;;;;4.90;3.55;;;12.30;86.90;;;;;;6242251;23;20256;-88
2022/04/28 07:47:52;;;;;;;8.82;4.00;;;12.50;86.20;;;;;;6242326;23;19996;-89
2022/04/28 07:50:18;;;;;;;6.10;3.80;;;12.50;85.00;;;;;;6241359;23;20031;-88
2022/04/28 07:52:44;;;;;;;5.10;3.92;;;12.60;80.90;;;;;;6240979;23;19997;-87
2022/04/28 07:55:13;;;;;;;4.80;3.45;;;12.70;81.10;;;;;;6240335;23;19992;-88
2022/04/28 07:57:39;;;;;;;8.25;3.88;;;12.70;81.60;;;;;;6241978;23;20012;-88
2022/04/28 08:00:07;;;;;;;5.70;4.28;;;12.80;77.80;;;;;;6241511;23;20005;-88
2022/04/28 08:02:33;;;;;;;3.90;3.28;;;12.80;79.30;;;;;;6241859;23;20009;-88
2022/04/28 08:04:59;;;;;;;5.57;3.78;;;12.90;76.00;;;;;;6241375;23;19997;-89
2022/04/28 08:07:25;;;;;;;5.97;3.53;;;13.00;77.50;;;;;;6241449;23;20082;-89
2022/04/28 08:09:51;;;;;;;8.32;3.55;;;13.00;75.40;;;;;;6241620;23;21047;-90
2022/04/28 08:12:19;;;;;;;4.40;3.50;;;13.10;74.80;;;;;;6241792;23;19989;-89
2022/04/28 08:14:48;;;;;;;6.10;3.60;;;13.20;74.20;;;;;;6241737;23;20016;-90
2022/04/28 08:17:14;;;;;;;4.82;3.78;;;13.30;73.60;;;;;;6241369;23;19993;-87
2022/04/28 08:19:43;;;;;;;4.80;3.55;;;13.40;70.70;;;;;;6241370;23;20027;-90
2022/04/28 08:22:09;;;;;;;4.47;3.45;;;13.40;70.00;;;;;;6241038;23;19997;-89
2022/04/28 08:24:35;;;;;;;7.75;4.07;;;13.50;69.40;;;;;;6242202;23;20009;-90
2022/04/28 08:27:01;;;;;;;4.93;4.00;;;13.60;67.30;;;;;;6242559;23;20094;-90
2022/04/28 08:29:27;;;;;;;4.78;3.42;;;13.70;68.70;;;;;;6242331;23;19993;-91
2022/04/28 08:31:53;;;;;;;3.45;2.90;;;13.80;68.50;;;;;;6241924;23;20059;-91
2022/04/28 08:34:19;;;;;;;7.63;3.55;;;13.90;65.30;;;;;;6242464;23;20004;-90
2022/04/28 08:36:46;;;;;;;3.88;3.05;;;14.00;66.50;;;;;;6239804;23;20020;-88
2022/04/28 08:39:11;;;;;;;4.13;3.38;;;14.20;65.20;;;;;;6238066;23;20068;-88
2022/04/28 08:41:42;;;;;;;14.30;3.75;;;14.10;62.40;;;;;;6241343;23;19992;-88
2022/04/28 08:44:15;;;;;;;3.53;3.05;;;14.20;63.10;;;;;;6242046;23;19996;-89
2022/04/28 08:46:53;;;;;;;6.35;2.92;;;14.30;62.90;;;;;;6241974;23;20035;-89
2022/04/28 08:49:29;;;;;;;4.22;3.28;;;14.50;64.20;;;;;;6241490;23;19999;-87
2022/04/28 08:51:58;;;;;;;4.70;3.35;;;14.60;61.20;;;;;;6241748;23;19993;-91
2022/04/28 08:54:29;;;;;;;3.92;2.90;;;14.70;61.60;;;;;;6241881;23;19997;-89
2022/04/28 08:56:59;;;;;;;9.05;3.00;;;14.90;61.70;;;;;;6240714;23;20015;-91
2022/04/28 08:59:25;;;;;;;4.25;3.05;;;15.00;60.20;;;;;;6240024;23;20466;-89
2022/04/28 09:01:51;;;;;;;4.00;2.38;;;15.10;58.90;;;;;;6240857;23;20017;-90
2022/04/28 09:04:18;;;;;;;4.93;2.90;;;15.10;58.30;;;;;;6242191;23;20009;-90
2022/04/28 09:06:45;;;;;;;6.47;3.00;;;15.30;57.80;;;;;;6242049;23;20016;-90
2022/04/28 09:09:13;;;;;;;5.45;2.75;;;15.50;59.00;;;;;;6241035;23;20048;-90
2022/04/28 09:11:40;;;;;;;3.92;2.63;;;15.60;58.30;;;;;;6240443;23;20016;-89
2022/04/28 09:14:17;;;;;;;4.50;2.53;;;15.70;56.20;;;;;;6240555;23;20005;-90
2022/04/28 09:16:46;;;;;;;7.75;2.92;;;15.80;56.00;;;;;;6241386;23;20010;-88
2022/04/28 09:19:26;;;;;;;3.67;2.60;;;15.90;57.00;;;;;;6240041;23;19992;-90
2022/04/28 09:21:54;;;;;;;3.13;2.50;;;16.00;55.90;;;;;;6240757;23;19997;-90
2022/04/28 09:24:21;;;;;;;3.08;2.30;;;16.20;54.80;;;;;;6241705;23;20007;-90
2022/04/28 09:26:48;;;;;;;4.80;2.78;;;16.30;54.00;;;;;;6240255;23;20004;-90
2022/04/28 09:29:16;;;;;;;3.33;2.40;;;16.50;54.50;;;;;;6240576;23;20011;-89
2022/04/28 09:31:44;;;;;;;5.93;2.75;;;16.50;53.10;;;;;;6240972;23;20000;-90
2022/04/28 09:34:12;;;;;;;5.63;2.40;;;16.50;52.70;;;;;;6241948;23;20064;-91
2022/04/28 09:36:39;;;;;;;3.15;2.47;;;16.70;51.20;;;;;;6241268;23;20009;-90
2022/04/28 09:39:06;;;;;;;4.32;2.88;;;16.80;53.70;;;;;;6240347;23;20024;-90
2022/04/28 09:44:20;;;;;;;3.20;2.55;;;17.00;49.90;;;;;;6240343;23;20004;-89
2022/04/28 09:46:47;;;;;;;3.28;2.25;;;17.10;49.30;;;;;;6240368;23;20086;-90
2022/04/28 09:49:21;;;;;;;3.30;2.53;;;17.20;49.10;;;;;;6238720;23;19992;-88
2022/04/28 09:51:46;;;;;;;3.80;2.40;;;17.30;47.90;;;;;;6239501;23;20000;-90
2022/04/28 09:54:14;;;;;;;4.95;2.45;;;17.50;47.00;;;;;;6238922;23;19991;-89
2022/04/28 09:56:42;;;;;;;3.45;2.47;;;17.70;46.90;;;;;;6237024;23;20537;-90
2022/04/28 09:59:10;;;;;;;4.07;2.80;;;18.00;46.20;;;;;;6221990;23;20001;-90
2022/04/28 10:01:38;;;;;;;3.85;2.55;;;18.30;44.30;;;;;;6237962;23;20027;-90
2022/04/28 10:04:05;;;;;;;2.33;2.10;;;18.30;45.30;;;;;;6240583;23;20001;-88
2022/04/28 10:06:33;;;;;;;3.40;2.22;;;18.70;43.70;;;;;;6238358;23;20009;-88
2022/04/28 10:09:03;;;;;;;6.57;2.47;;;19.10;43.60;;;;;;6239440;23;20025;-90
2022/04/28 10:11:29;;;;;;;3.92;2.20;;;19.30;42.50;;;;;;6234960;23;20024;-91
2022/04/28 10:13:57;;;;;;;4.35;2.38;;;19.40;41.50;;;;;;6240417;23;19988;-89
2022/04/28 10:16:24;;;;;;;2.65;2.25;;;19.40;41.30;;;;;;6241156;23;20023;-91
2022/04/28 10:19:02;;;;;;;3.45;2.20;;;20.00;40.80;;;;;;6241297;23;20071;-91
2022/04/28 10:21:47;;;;;;;26.52;2.63;;;20.80;40.10;;;;;;6242253;23;20060;-90
2022/04/28 10:32:57;;;;;;;4.63;2.50;;;22.30;34.50;;;;;;6239441;23;20094;-89
2022/04/28 10:35:39;;;;;;;3.78;2.22;;;22.40;34.60;;;;;;6238649;23;20434;-89
2022/04/28 10:38:34;;;;;;;4.32;2.50;;;22.60;32.20;;;;;;6237745;23;20004;-89
2022/04/28 10:41:08;;;;;;;2.78;1.90;;;22.50;33.50;;;;;;6229777;23;20020;-88
2022/04/28 10:43:33;;;;;;;3.15;2.33;;;22.40;33.40;;;;;;6235650;23;19988;-89
2022/04/28 10:46:01;;;;;;;6.00;2.45;;;22.30;32.50;;;;;;6230498;23;20090;-89
2022/04/28 10:48:30;;;;;;;2.42;1.90;;;22.60;32.80;;;;;;6237602;23;20024;-90
2022/04/28 10:51:16;;;;;;;3.80;2.08;;;22.50;33.20;;;;;;6237994;23;20015;-86
2022/04/28 10:54:00;;;;;;;4.60;2.35;;;23.00;32.50;;;;;;6239072;23;19993;-88
2022/04/28 10:56:30;;;;;;;4.03;2.60;;;23.00;32.20;;;;;;6238370;23;20000;-89
2022/04/28 10:59:02;;;;;;;4.13;2.08;;;23.20;30.50;;;;;;6238744;23;20036;-88
2022/04/28 11:01:32;;;;;;;4.80;2.15;;;23.50;31.50;;;;;;6231693;23;20016;-88
2022/04/28 11:04:00;;;;;;;7.82;2.70;;;23.80;31.40;;;;;;6228236;23;20055;-90
2022/04/28 11:06:37;;;;;;;3.83;2.08;;;24.10;30.90;;;;;;6231369;23;20060;-88
2022/04/28 11:09:04;;;;;;;3.00;2.38;;;23.90;30.00;;;;;;6231274;23;20000;-88
2022/04/28 11:11:47;;;;;;;4.40;2.03;;;23.70;29.60;;;;;;6232742;23;20008;-89
2022/04/28 11:14:14;;;;;;;5.97;2.50;;;23.00;30.60;;;;;;6236260;23;20011;-88
2022/04/28 11:16:43;;;;;;;2.65;2.08;;;23.00;32.00;;;;;;6238664;23;20015;-90
2022/04/28 11:19:10;;;;;;;3.22;2.05;;;22.70;32.20;;;;;;6240038;23;20009;-89
2022/04/28 11:21:39;;;;;;;4.85;2.35;;;22.90;32.90;;;;;;6234949;23;20481;-88
2022/04/28 11:24:06;;;;;;;5.40;2.50;;;23.10;31.50;;;;;;6235891;23;20013;-89
2022/04/28 11:26:32;;;;;;;5.28;2.42;;;23.50;32.50;;;;;;6235998;23;20001;-90
2022/04/28 11:29:08;;;;;;;3.17;2.60;;;23.80;32.50;;;;;;6240228;23;19996;-89
2022/04/28 11:31:34;;;;;;;3.55;2.28;;;24.00;32.90;;;;;;6240027;23;20055;-91
2022/04/28 11:34:04;;;;;;;3.90;2.47;;;24.20;31.60;;;;;;6238440;23;20009;-90
2022/04/28 11:36:30;;;;;;;2.78;2.10;;;24.40;31.40;;;;;;6239500;23;19993;-91
2022/04/28 11:38:57;;;;;;;10.07;2.67;;;24.60;31.30;;;;;;6233945;23;20009;-90
2022/04/28 11:41:25;;;;;;;2.95;2.10;;;24.70;30.90;;;;;;6234858;23;20024;-88
2022/04/28 11:43:52;;;;;;;4.25;2.70;;;24.90;31.80;;;;;;6229958;23;20103;-89
2022/04/28 11:46:18;;;;;;;3.05;2.38;;;25.00;31.10;;;;;;6217299;23;20137;-88
2022/04/28 11:48:44;;;;;;;6.63;2.58;;;24.80;32.40;;;;;;6219704;23;20001;-88
2022/04/28 11:51:10;;;;;;;4.35;2.83;;;25.20;32.00;;;;;;6215457;23;20063;-88
2022/04/28 11:53:46;;;;;;;4.90;2.35;;;25.40;32.40;;;;;;6216590;23;20008;-88
2022/04/28 11:56:22;;;;;;;2.78;2.47;;;25.70;32.50;;;;;;6216961;23;20001;-88
2022/04/28 11:58:49;;;;;;;3.05;2.38;;;25.60;32.60;;;;;;6219608;23;19996;-88
2022/04/28 12:01:16;;;;;;;3.42;2.65;;;25.80;32.40;;;;;;6216955;23;20036;-87
2022/04/28 12:03:57;;;;;;;4.35;2.88;;;25.50;33.20;;;;;;6219384;23;20005;-88
2022/04/28 12:06:23;;;;;;;4.70;3.05;;;25.50;33.20;;;;;;6214256;23;20029;-89
2022/04/28 12:08:49;;;;;;;3.72;3.08;;;25.00;33.20;;;;;;6213802;23;20005;-88
2022/04/28 12:14:45;;;;;;;4.03;2.72;;;24.40;35.10;;;;;;6214698;23;20011;-88
2022/04/28 12:19:30;;;;;;;5.45;2.95;;;24.10;35.40;;;;;;6214904;23;20015;-86
2022/04/28 12:22:03;;;;;;;4.32;2.10;;;23.80;35.50;;;;;;6220514;23;20394;-89
2022/04/28 12:24:35;;;;;;;3.30;2.40;;;23.70;34.70;;;;;;6235304;23;20007;-88
2022/04/28 12:27:07;;;;;;;3.20;2.65;;;23.00;36.00;;;;;;6235373;23;19989;-89
2022/04/28 12:29:52;;;;;;;5.65;2.80;;;23.10;36.40;;;;;;6242001;23;20019;-89
2022/04/28 12:32:21;;;;;;;2.55;2.30;;;23.00;36.40;;;;;;6240638;23;20047;-90
2022/04/28 12:35:01;;;;;;;6.22;3.22;;;22.80;37.50;;;;;;6242894;23;20023;-89
2022/04/28 12:37:27;;;;;;;4.22;3.08;;;22.50;38.70;;;;;;6220094;23;20339;-86
2022/04/28 12:39:58;;;;;;;3.70;2.72;;;22.30;38.90;;;;;;6213116;23;20074;-85
2022/04/28 12:42:25;;;;;;;5.68;3.28;;;22.50;38.40;;;;;;6214952;23;20007;-87
2022/04/28 12:44:52;;;;;;;3.33;2.42;;;22.50;37.60;;;;;;6212942;23;20431;-88
2022/04/28 12:47:17;;;;;;;5.70;2.30;;;22.70;38.90;;;;;;6214764;23;20127;-86
2022/04/28 12:49:48;;;;;;;7.45;3.00;;;22.90;37.00;;;;;;6213267;23;20008;-88
2022/04/28 12:52:28;;;;;;;3.08;2.10;;;22.90;36.80;;;;;;6212808;23;20005;-86
2022/04/28 12:55:05;;;;;;;5.30;2.70;;;22.90;38.10;;;;;;6211617;23;20012;-88
2022/04/28 12:57:31;;;;;;;5.93;2.55;;;23.40;36.90;;;;;;6212934;23;20011;-88
2022/04/28 13:00:01;;;;;;;3.42;2.47;;;23.50;35.50;;;;;;6214220;23;20005;-87
2022/04/28 13:02:31;;;;;;;7.47;2.72;;;23.70;36.60;;;;;;6212858;23;20024;-88
2022/04/28 13:05:14;;;;;;;4.43;2.65;;;23.50;34.50;;;;;;6213148;23;20013;-87
2022/04/28 13:07:44;;;;;;;4.90;3.10;;;23.10;36.40;;;;;;6214703;23;20005;-88
2022/04/28 13:10:13;;;;;;;5.15;2.40;;;23.50;35.20;;;;;;6213756;23;20071;-87
2022/04/28 13:12:39;;;;;;;2.85;2.40;;;23.50;35.60;;;;;;6214582;23;19997;-87
2022/04/28 13:15:05;;;;;;;4.75;2.17;;;23.90;36.20;;;;;;6214728;23;20004;-88
2022/04/28 13:17:31;;;;;;;2.15;1.95;;;24.20;35.00;;;;;;6214525;23;20011;-86
2022/04/28 13:19:57;;;;;;;6.90;2.25;;;24.40;35.20;;;;;;6212638;23;20025;-88
2022/04/28 13:22:23;;;;;;;3.40;1.88;;;24.50;33.70;;;;;;6212378;23;20023;-89
2022/04/28 13:24:49;;;;;;;9.07;1.90;;;24.80;33.60;;;;;;6214337;23;20005;-88
2022/04/28 13:27:15;;;;;;;2.58;1.88;;;24.80;32.80;;;;;;6214176;23;20020;-88
2022/04/28 13:29:41;;;;;;;3.08;2.15;;;25.00;32.70;;;;;;6214382;23;20075;-88
2022/04/28 13:32:08;;;;;;;2.83;2.15;;;25.40;31.90;;;;;;6212249;23;20007;-89
2022/04/28 13:34:35;;;;;;;4.03;2.28;;;25.80;31.90;;;;;;6214533;23;20008;-88
2022/04/28 13:37:00;;;;;;;2.08;1.70;;;26.30;30.90;;;;;;6212558;23;20032;-88
2022/04/28 13:39:26;;;;;;;6.13;2.08;;;26.50;31.00;;;;;;6212686;23;20009;-89
2022/04/28 13:41:52;;;;;;;4.85;1.83;;;26.80;29.90;;;;;;6212302;23;20004;-89
2022/04/28 13:44:19;;;;;;;3.58;2.70;;;26.40;30.40;;;;;;6214851;23;19996;-90
2022/04/28 13:46:45;;;;;;;3.92;1.98;;;26.00;29.10;;;;;;6212245;23;20005;-88
2022/04/28 13:49:11;;;;;;;3.47;2.20;;;25.80;30.40;;;;;;6212632;23;20331;-87
2022/04/28 13:51:37;;;;;;;1.90;1.70;;;25.90;30.40;;;;;;6213669;23;20005;-88
2022/04/28 13:54:02;;;;;;;3.00;2.17;;;26.30;29.90;;;;;;6212478;23;20005;-88
2022/04/28 13:56:28;;;;;;;2.72;1.98;;;25.80;29.70;;;;;;6212466;23;19997;-88
2022/04/28 13:58:54;;;;;;;2.15;1.73;;;25.80;31.00;;;;;;6212374;23;20338;-88
2022/04/28 14:01:20;;;;;;;4.57;2.25;;;26.20;30.90;;;;;;6213838;23;20015;-89
2022/04/28 14:03:46;;;;;;;3.45;2.20;;;26.20;30.30;;;;;;6214404;23;20083;-89
2022/04/28 14:06:12;;;;;;;4.95;2.63;;;26.50;29.70;;;;;;6214365;23;20027;-89
2022/04/28 14:08:38;;;;;;;2.15;1.85;;;26.80;29.30;;;;;;6213943;23;20488;-88
2022/04/28 14:11:07;;;;;;;4.53;1.70;;;27.10;29.50;;;;;;6211967;23;20075;-90